Terminal Aerodrome Forecast
Issued by NWS Billings, MT

Home | Current Version | Previous Version | Text Only | Print | Product List | Glossary On
Versions: 1 2 3 4 5 6 7 8 9 10 11 12 13
000
FTUS45 KBYZ 111120
TAFMLS
TAF
KMLS 111120Z 1112/1212 28015KT P6SM FEW150 SCT250
     FM111800 30015G25KT P6SM FEW150 SCT250
     FM120000 VRB05KT P6SM SCT250=

USA.gov is the U.S. government's official web portal to all federal, state and local government web resources and services.